sensor_id;sensor_type;location;lat;lon;timestamp;pressure;altitude;pressure_sealevel;temperature;humidity
5053;BME280;2545;50.892;5.740;2023-08-01T00:00:25;56335.63;;;-142.21;100.00
5053;BME280;2545;50.892;5.740;2023-08-01T00:02:51;56296.41;;;-142.21;100.00
5053;BME280;2545;50.892;5.740;2023-08-01T00:05:16;56323.88;;;-142.21;100.00
5053;BME280;2545;50.892;5.740;2023-08-01T00:07:41;56308.19;;;-142.21;100.00
5053;BME280;2545;50.892;5.740;2023-08-01T00:10:07;56312.09;;;-142.21;100.00
5053;BME280;2545;50.892;5.740;2023-08-01T00:12:33;56300.34;;;-142.21;100.00
5053;BME280;2545;50.892;5.740;2023-08-01T00:14:58;56296.41;;;-142.21;100.00
5053;BME280;2545;50.892;5.740;2023-08-01T00:17:24;56308.19;;;-142.21;100.00
5053;BME280;2545;50.892;5.740;2023-08-01T00:19:49;56290.53;;;-142.21;100.00
5053;BME280;2545;50.892;5.740;2023-08-01T00:22:14;56337.59;;;-142.21;100.00
5053;BME280;2545;50.892;5.740;2023-08-01T00:24:40;56331.72;;;-142.21;100.00
5053;BME280;2545;50.892;5.740;2023-08-01T00:27:05;56337.59;;;-142.21;100.00
5053;BME280;2545;50.892;5.740;2023-08-01T00:29:33;56310.13;;;-142.21;100.00
5053;BME280;2545;50.892;5.740;2023-08-01T00:31:58;56319.94;;;-142.21;100.00
5053;BME280;2545;50.892;5.740;2023-08-01T00:34:23;56323.88;;;-142.21;100.00
5053;BME280;2545;50.892;5.740;2023-08-01T00:36:48;56267.00;;;-142.21;100.00
5053;BME280;2545;50.892;5.740;2023-08-01T00:39:14;56382.69;;;-142.21;100.00
5053;BME280;2545;50.892;5.740;2023-08-01T00:41:39;56335.63;;;-142.21;100.00
5053;BME280;2545;50.892;5.740;2023-08-01T00:44:05;56284.66;;;-142.21;100.00
5053;BME280;2545;50.892;5.740;2023-08-01T00:46:32;56331.72;;;-142.21;100.00
5053;BME280;2545;50.892;5.740;2023-08-01T00:48:57;56300.34;;;-142.21;100.00
5053;BME280;2545;50.892;5.740;2023-08-01T00:51:24;56323.88;;;-142.21;100.00
5053;BME280;2545;50.892;5.740;2023-08-01T00:53:50;56323.88;;;-142.21;100.00
5053;BME280;2545;50.892;5.740;2023-08-01T00:56:16;56317.97;;;-142.21;100.00
5053;BME280;2545;50.892;5.740;2023-08-01T00:58:41;56370.94;;;-142.21;100.00
5053;BME280;2545;50.892;5.740;2023-08-01T01:01:07;56319.94;;;-142.21;100.00
5053;BME280;2545;50.892;5.740;2023-08-01T01:03:32;56329.75;;;-142.21;100.00
5053;BME280;2545;50.892;5.740;2023-08-01T01:06:16;56341.53;;;-142.21;100.00
5053;BME280;2545;50.892;5.740;2023-08-01T01:08:46;56355.25;;;-142.21;100.00
5053;BME280;2545;50.892;5.740;2023-08-01T01:11:12;56341.53;;;-142.21;100.00
5053;BME280;2545;50.892;5.740;2023-08-01T01:13:37;56321.91;;;-142.21;100.00
5053;BME280;2545;50.892;5.740;2023-08-01T01:16:03;56314.06;;;-142.21;100.00
5053;BME280;2545;50.892;5.740;2023-08-01T01:18:28;56329.75;;;-142.21;100.00
5053;BME280;2545;50.892;5.740;2023-08-01T01:20:53;56331.72;;;-142.21;100.00
5053;BME280;2545;50.892;5.740;2023-08-01T01:23:19;56329.75;;;-142.21;100.00
5053;BME280;2545;50.892;5.740;2023-08-01T01:25:46;56312.09;;;-142.21;100.00
5053;BME280;2545;50.892;5.740;2023-08-01T01:28:12;56312.09;;;-142.21;100.00
5053;BME280;2545;50.892;5.740;2023-08-01T01:30:38;56349.38;;;-142.21;100.00
5053;BME280;2545;50.892;5.740;2023-08-01T01:33:03;56316.03;;;-142.21;100.00
5053;BME280;2545;50.892;5.740;2023-08-01T01:35:32;56292.50;;;-142.21;100.00
5053;BME280;2545;50.892;5.740;2023-08-01T01:37:58;56345.44;;;-142.21;100.00
5053;BME280;2545;50.892;5.740;2023-08-01T01:40:23;56314.06;;;-142.21;100.00
5053;BME280;2545;50.892;5.740;2023-08-01T01:42:49;56349.38;;;-142.21;100.00
5053;BME280;2545;50.892;5.740;2023-08-01T01:45:14;56319.94;;;-142.21;100.00
5053;BME280;2545;50.892;5.740;2023-08-01T01:47:40;56343.47;;;-142.21;100.00
5053;BME280;2545;50.892;5.740;2023-08-01T01:50:05;56319.94;;;-142.21;100.00
5053;BME280;2545;50.892;5.740;2023-08-01T01:52:31;56296.41;;;-142.21;100.00
5053;BME280;2545;50.892;5.740;2023-08-01T01:54:56;56319.94;;;-142.21;100.00
5053;BME280;2545;50.892;5.740;2023-08-01T01:57:21;56290.53;;;-142.21;100.00
5053;BME280;2545;50.892;5.740;2023-08-01T01:59:47;56325.84;;;-142.21;100.00
5053;BME280;2545;50.892;5.740;2023-08-01T02:02:12;56351.31;;;-142.21;100.00
5053;BME280;2545;50.892;5.740;2023-08-01T02:04:37;56323.88;;;-142.21;100.00
5053;BME280;2545;50.892;5.740;2023-08-01T02:07:03;56319.94;;;-142.21;100.00
5053;BME280;2545;50.892;5.740;2023-08-01T02:09:28;56261.13;;;-142.21;100.00
5053;BME280;2545;50.892;5.740;2023-08-01T02:11:53;56347.41;;;-142.21;100.00
5053;BME280;2545;50.892;5.740;2023-08-01T02:14:19;56300.34;;;-142.21;100.00
5053;BME280;2545;50.892;5.740;2023-08-01T02:16:44;56335.63;;;-142.21;100.00
5053;BME280;2545;50.892;5.740;2023-08-01T02:19:10;56339.56;;;-142.21;100.00
5053;BME280;2545;50.892;5.740;2023-08-01T02:21:35;56312.09;;;-142.21;100.00
5053;BME280;2545;50.892;5.740;2023-08-01T02:24:00;56319.94;;;-142.21;100.00
5053;BME280;2545;50.892;5.740;2023-08-01T02:26:26;56331.72;;;-142.21;100.00
5053;BME280;2545;50.892;5.740;2023-08-01T02:28:51;56327.78;;;-142.21;100.00
5053;BME280;2545;50.892;5.740;2023-08-01T02:31:17;56316.03;;;-142.21;100.00
5053;BME280;2545;50.892;5.740;2023-08-01T02:33:42;56306.22;;;-142.21;100.00
5053;BME280;2545;50.892;5.740;2023-08-01T02:36:07;56308.19;;;-142.21;100.00
5053;BME280;2545;50.892;5.740;2023-08-01T02:38:33;56312.09;;;-142.21;100.00
5053;BME280;2545;50.892;5.740;2023-08-01T02:40:58;56314.06;;;-142.21;100.00
5053;BME280;2545;50.892;5.740;2023-08-01T02:43:23;56312.09;;;-142.21;100.00
5053;BME280;2545;50.892;5.740;2023-08-01T02:45:49;56298.38;;;-142.21;100.00
5053;BME280;2545;50.892;5.740;2023-08-01T02:48:16;56300.34;;;-142.21;100.00
5053;BME280;2545;50.892;5.740;2023-08-01T02:50:41;56335.63;;;-142.21;100.00
5053;BME280;2545;50.892;5.740;2023-08-01T02:53:07;56292.50;;;-142.21;100.00
5053;BME280;2545;50.892;5.740;2023-08-01T02:55:32;56312.09;;;-142.21;100.00
5053;BME280;2545;50.892;5.740;2023-08-01T02:57:58;56314.06;;;-142.21;100.00
5053;BME280;2545;50.892;5.740;2023-08-01T03:00:23;56276.81;;;-142.21;100.00
5053;BME280;2545;50.892;5.740;2023-08-01T03:02:48;56323.88;;;-142.21;100.00
5053;BME280;2545;50.892;5.740;2023-08-01T03:05:14;56314.06;;;-142.21;100.00
5053;BME280;2545;50.892;5.740;2023-08-01T03:07:39;56312.09;;;-142.21;100.00
5053;BME280;2545;50.892;5.740;2023-08-01T03:10:05;56296.41;;;-142.21;100.00
5053;BME280;2545;50.892;5.740;2023-08-01T03:12:32;56302.28;;;-142.21;100.00
5053;BME280;2545;50.892;5.740;2023-08-01T03:14:57;56306.22;;;-142.21;100.00
5053;BME280;2545;50.892;5.740;2023-08-01T03:17:22;56302.28;;;-142.21;100.00
5053;BME280;2545;50.892;5.740;2023-08-01T03:19:48;56321.91;;;-142.21;100.00
5053;BME280;2545;50.892;5.740;2023-08-01T03:22:14;56327.78;;;-142.21;100.00
5053;BME280;2545;50.892;5.740;2023-08-01T03:24:39;56329.75;;;-142.21;100.00
5053;BME280;2545;50.892;5.740;2023-08-01T03:27:05;56319.94;;;-142.21;100.00
5053;BME280;2545;50.892;5.740;2023-08-01T03:29:30;56290.53;;;-142.21;100.00
5053;BME280;2545;50.892;5.740;2023-08-01T03:31:55;56304.25;;;-142.21;100.00
5053;BME280;2545;50.892;5.740;2023-08-01T03:34:21;56310.13;;;-142.21;100.00
5053;BME280;2545;50.892;5.740;2023-08-01T03:36:46;56325.84;;;-142.21;100.00
5053;BME280;2545;50.892;5.740;2023-08-01T03:39:11;56329.75;;;-142.21;100.00
5053;BME280;2545;50.892;5.740;2023-08-01T03:41:37;56321.91;;;-142.21;100.00
5053;BME280;2545;50.892;5.740;2023-08-01T03:44:03;56304.25;;;-142.21;100.00
5053;BME280;2545;50.892;5.740;2023-08-01T03:46:29;56304.25;;;-142.21;100.00
5053;BME280;2545;50.892;5.740;2023-08-01T03:48:54;56288.56;;;-142.21;100.00
5053;BME280;2545;50.892;5.740;2023-08-01T03:51:19;56316.03;;;-142.21;100.00
5053;BME280;2545;50.892;5.740;2023-08-01T03:53:45;56323.88;;;-142.21;100.00
5053;BME280;2545;50.892;5.740;2023-08-01T03:56:11;56267.00;;;-142.21;100.00
5053;BME280;2545;50.892;5.740;2023-08-01T03:58:36;56288.56;;;-142.21;100.00
5053;BME280;2545;50.892;5.740;2023-08-01T04:01:02;56288.56;;;-142.21;100.00
5053;BME280;2545;50.892;5.740;2023-08-01T04:03:27;56294.47;;;-142.21;100.00
5053;BME280;2545;50.892;5.740;2023-08-01T04:05:52;56310.13;;;-142.21;100.00
5053;BME280;2545;50.892;5.740;2023-08-01T04:08:19;56302.28;;;-142.21;100.00
5053;BME280;2545;50.892;5.740;2023-08-01T04:10:44;56316.03;;;-142.21;100.00
5053;BME280;2545;50.892;5.740;2023-08-01T04:13:09;56272.88;;;-142.21;100.00
5053;BME280;2545;50.892;5.740;2023-08-01T04:15:34;56304.25;;;-142.21;100.00
5053;BME280;2545;50.892;5.740;2023-08-01T04:18:00;56333.69;;;-142.21;100.00
5053;BME280;2545;50.892;5.740;2023-08-01T04:20:25;56312.09;;;-142.21;100.00
5053;BME280;2545;50.892;5.740;2023-08-01T04:22:50;56319.94;;;-142.21;100.00
5053;BME280;2545;50.892;5.740;2023-08-01T04:25:16;56292.50;;;-142.21;100.00
5053;BME280;2545;50.892;5.740;2023-08-01T04:27:41;56319.94;;;-142.21;100.00
5053;BME280;2545;50.892;5.740;2023-08-01T04:30:07;56292.50;;;-142.21;100.00
5053;BME280;2545;50.892;5.740;2023-08-01T04:32:32;56304.25;;;-142.21;100.00
5053;BME280;2545;50.892;5.740;2023-08-01T04:34:58;56300.34;;;-142.21;100.00
5053;BME280;2545;50.892;5.740;2023-08-01T04:37:23;56276.81;;;-142.21;100.00
5053;BME280;2545;50.892;5.740;2023-08-01T04:39:48;56294.47;;;-142.21;100.00
5053;BME280;2545;50.892;5.740;2023-08-01T04:42:14;56290.53;;;-142.21;100.00
5053;BME280;2545;50.892;5.740;2023-08-01T04:44:39;56321.91;;;-142.21;100.00
5053;BME280;2545;50.892;5.740;2023-08-01T04:47:05;56331.72;;;-142.21;100.00
5053;BME280;2545;50.892;5.740;2023-08-01T04:49:30;56267.00;;;-142.21;100.00
5053;BME280;2545;50.892;5.740;2023-08-01T04:51:56;56331.72;;;-142.21;100.00
5053;BME280;2545;50.892;5.740;2023-08-01T04:54:21;56308.19;;;-142.21;100.00
5053;BME280;2545;50.892;5.740;2023-08-01T04:56:47;56312.09;;;-142.21;100.00
5053;BME280;2545;50.892;5.740;2023-08-01T04:59:12;56312.09;;;-142.21;100.00
5053;BME280;2545;50.892;5.740;2023-08-01T05:01:37;56282.69;;;-142.21;100.00
5053;BME280;2545;50.892;5.740;2023-08-01T05:04:03;56265.03;;;-142.21;100.00
5053;BME280;2545;50.892;5.740;2023-08-01T05:06:28;56292.50;;;-142.21;100.00
5053;BME280;2545;50.892;5.740;2023-08-01T05:08:54;56292.50;;;-142.21;100.00
5053;BME280;2545;50.892;5.740;2023-08-01T05:11:19;56300.34;;;-142.21;100.00
5053;BME280;2545;50.892;5.740;2023-08-01T05:13:45;56351.31;;;-142.21;100.00
5053;BME280;2545;50.892;5.740;2023-08-01T05:16:10;56314.06;;;-142.21;100.00
5053;BME280;2545;50.892;5.740;2023-08-01T05:18:36;56323.88;;;-142.21;100.00
5053;BME280;2545;50.892;5.740;2023-08-01T05:21:01;56245.44;;;-142.21;100.00
5053;BME280;2545;50.892;5.740;2023-08-01T05:23:26;56319.94;;;-142.21;100.00
5053;BME280;2545;50.892;5.740;2023-08-01T05:25:52;56317.97;;;-142.21;100.00
5053;BME280;2545;50.892;5.740;2023-08-01T05:28:17;56251.31;;;-142.21;100.00
5053;BME280;2545;50.892;5.740;2023-08-01T05:30:42;56237.59;;;-142.21;100.00
5053;BME280;2545;50.892;5.740;2023-08-01T05:33:08;56288.56;;;-142.21;100.00
5053;BME280;2545;50.892;5.740;2023-08-01T05:35:33;56292.50;;;-142.21;100.00
5053;BME280;2545;50.892;5.740;2023-08-01T05:37:59;56312.09;;;-142.21;100.00
5053;BME280;2545;50.892;5.740;2023-08-01T05:40:25;56272.88;;;-142.21;100.00
5053;BME280;2545;50.892;5.740;2023-08-01T05:42:50;56300.34;;;-142.21;100.00
5053;BME280;2545;50.892;5.740;2023-08-01T05:45:16;56300.34;;;-142.21;100.00
5053;BME280;2545;50.892;5.740;2023-08-01T05:47:41;56290.53;;;-142.21;100.00
5053;BME280;2545;50.892;5.740;2023-08-01T05:50:07;56245.44;;;-142.21;100.00
5053;BME280;2545;50.892;5.740;2023-08-01T05:52:33;56284.66;;;-142.21;100.00
5053;BME280;2545;50.892;5.740;2023-08-01T05:54:58;56312.09;;;-142.21;100.00
5053;BME280;2545;50.892;5.740;2023-08-01T05:57:24;56263.06;;;-142.21;100.00
5053;BME280;2545;50.892;5.740;2023-08-01T05:59:49;56259.16;;;-142.21;100.00
5053;BME280;2545;50.892;5.740;2023-08-01T06:02:15;56259.16;;;-142.21;100.00
5053;BME280;2545;50.892;5.740;2023-08-01T06:04:40;56249.34;;;-142.21;100.00
5053;BME280;2545;50.892;5.740;2023-08-01T06:07:05;56253.28;;;-142.21;100.00
5053;BME280;2545;50.892;5.740;2023-08-01T06:09:31;56280.72;;;-142.21;100.00
5053;BME280;2545;50.892;5.740;2023-08-01T06:11:56;56292.50;;;-142.21;100.00
5053;BME280;2545;50.892;5.740;2023-08-01T06:14:21;56261.13;;;-142.21;100.00
5053;BME280;2545;50.892;5.740;2023-08-01T06:16:47;56290.53;;;-142.21;100.00
5053;BME280;2545;50.892;5.740;2023-08-01T06:19:12;56261.13;;;-142.21;100.00
5053;BME280;2545;50.892;5.740;2023-08-01T06:21:37;56314.06;;;-142.21;100.00
5053;BME280;2545;50.892;5.740;2023-08-01T06:24:03;56290.53;;;-142.21;100.00
5053;BME280;2545;50.892;5.740;2023-08-01T06:26:28;56292.50;;;-142.21;100.00
5053;BME280;2545;50.892;5.740;2023-08-01T06:28:54;56280.72;;;-142.21;100.00
5053;BME280;2545;50.892;5.740;2023-08-01T06:31:20;56259.16;;;-142.21;100.00
5053;BME280;2545;50.892;5.740;2023-08-01T06:33:46;56225.81;;;-142.21;100.00
5053;BME280;2545;50.892;5.740;2023-08-01T06:36:11;56239.56;;;-142.21;100.00
5053;BME280;2545;50.892;5.740;2023-08-01T06:38:38;56270.91;;;-142.21;100.00
5053;BME280;2545;50.892;5.740;2023-08-01T06:41:03;56257.19;;;-142.21;100.00
5053;BME280;2545;50.892;5.740;2023-08-01T06:43:28;56272.88;;;-142.21;100.00
5053;BME280;2545;50.892;5.740;2023-08-01T06:45:54;56233.66;;;-142.21;100.00
5053;BME280;2545;50.892;5.740;2023-08-01T06:48:19;56294.47;;;-142.21;100.00
5053;BME280;2545;50.892;5.740;2023-08-01T06:50:44;56253.28;;;-142.21;100.00
5053;BME280;2545;50.892;5.740;2023-08-01T06:53:10;56245.44;;;-142.21;100.00
5053;BME280;2545;50.892;5.740;2023-08-01T06:55:35;56251.31;;;-142.21;100.00
5053;BME280;2545;50.892;5.740;2023-08-01T06:58:00;56257.19;;;-142.21;100.00
5053;BME280;2545;50.892;5.740;2023-08-01T07:00:26;56296.41;;;-142.21;100.00
5053;BME280;2545;50.892;5.740;2023-08-01T07:02:51;56286.63;;;-142.21;100.00
5053;BME280;2545;50.892;5.740;2023-08-01T07:05:17;56241.50;;;-142.21;100.00
5053;BME280;2545;50.892;5.740;2023-08-01T07:07:42;56257.19;;;-142.21;100.00
5053;BME280;2545;50.892;5.740;2023-08-01T07:10:08;56302.28;;;-142.21;100.00
5053;BME280;2545;50.892;5.740;2023-08-01T07:12:33;56268.97;;;-142.21;100.00
5053;BME280;2545;50.892;5.740;2023-08-01T07:14:58;56294.47;;;-142.21;100.00
5053;BME280;2545;50.892;5.740;2023-08-01T07:17:24;56280.72;;;-142.21;100.00
5053;BME280;2545;50.892;5.740;2023-08-01T07:19:49;56276.81;;;-142.21;100.00
5053;BME280;2545;50.892;5.740;2023-08-01T07:22:14;56235.63;;;-142.21;100.00
5053;BME280;2545;50.892;5.740;2023-08-01T07:24:40;56268.97;;;-142.21;100.00
5053;BME280;2545;50.892;5.740;2023-08-01T07:27:05;56233.66;;;-142.21;100.00
5053;BME280;2545;50.892;5.740;2023-08-01T07:29:31;56270.91;;;-142.21;100.00
5053;BME280;2545;50.892;5.740;2023-08-01T07:31:56;56229.75;;;-142.21;100.00
5053;BME280;2545;50.892;5.740;2023-08-01T07:34:21;56265.03;;;-142.21;100.00
5053;BME280;2545;50.892;5.740;2023-08-01T07:36:48;56261.13;;;-142.21;100.00
5053;BME280;2545;50.892;5.740;2023-08-01T07:39:16;56272.88;;;-142.21;100.00
5053;BME280;2545;50.892;5.740;2023-08-01T07:41:42;56272.88;;;-142.21;100.00
5053;BME280;2545;50.892;5.740;2023-08-01T07:44:07;56280.72;;;-142.21;100.00
5053;BME280;2545;50.892;5.740;2023-08-01T07:46:32;56229.75;;;-142.21;100.00
5053;BME280;2545;50.892;5.740;2023-08-01T07:48:58;56208.16;;;-142.21;100.00
5053;BME280;2545;50.892;5.740;2023-08-01T07:51:25;56268.97;;;-142.21;100.00
5053;BME280;2545;50.892;5.740;2023-08-01T07:53:51;56241.50;;;-142.21;100.00
5053;BME280;2545;50.892;5.740;2023-08-01T07:56:17;56265.03;;;-142.21;100.00
5053;BME280;2545;50.892;5.740;2023-08-01T07:58:43;56251.31;;;-142.21;100.00
5053;BME280;2545;50.892;5.740;2023-08-01T08:01:08;56241.50;;;-142.21;100.00
5053;BME280;2545;50.892;5.740;2023-08-01T08:03:33;56225.81;;;-142.21;100.00
5053;BME280;2545;50.892;5.740;2023-08-01T08:05:59;56241.50;;;-142.21;100.00
5053;BME280;2545;50.892;5.740;2023-08-01T08:08:25;56243.47;;;-142.21;100.00
5053;BME280;2545;50.892;5.740;2023-08-01T08:10:50;56212.09;;;-142.21;100.00
5053;BME280;2545;50.892;5.740;2023-08-01T08:13:15;56237.59;;;-142.21;100.00
5053;BME280;2545;50.892;5.740;2023-08-01T08:15:41;56268.97;;;-142.21;100.00
5053;BME280;2545;50.892;5.740;2023-08-01T08:18:06;56261.13;;;-142.21;100.00
5053;BME280;2545;50.892;5.740;2023-08-01T08:20:40;56261.13;;;-142.21;100.00
5053;BME280;2545;50.892;5.740;2023-08-01T08:23:05;56249.34;;;-142.21;98.92
5053;BME280;2545;50.892;5.740;2023-08-01T08:25:31;56257.19;;;-142.21;96.44
5053;BME280;2545;50.892;5.740;2023-08-01T08:27:56;56249.34;;;-142.21;98.05
5053;BME280;2545;50.892;5.740;2023-08-01T08:30:22;56206.22;;;-142.21;95.40
5053;BME280;2545;50.892;5.740;2023-08-01T08:32:47;56237.59;;;-142.21;93.38
5053;BME280;2545;50.892;5.740;2023-08-01T08:35:12;56241.50;;;-142.21;89.58
5053;BME280;2545;50.892;5.740;2023-08-01T08:37:37;56221.91;;;-142.21;92.61
5053;BME280;2545;50.892;5.740;2023-08-01T08:40:03;56237.59;;;-142.21;92.95
5053;BME280;2545;50.892;5.740;2023-08-01T08:42:29;56294.47;;;-142.21;93.49
5053;BME280;2545;50.892;5.740;2023-08-01T08:44:55;56229.75;;;-142.21;92.44
5053;BME280;2545;50.892;5.740;2023-08-01T08:47:24;56233.66;;;-142.21;89.21
5053;BME280;2545;50.892;5.740;2023-08-01T08:49:50;56241.50;;;-142.21;88.09
5053;BME280;2545;50.892;5.740;2023-08-01T08:52:16;56233.66;;;-142.21;89.98
5053;BME280;2545;50.892;5.740;2023-08-01T08:54:43;56225.81;;;-142.21;89.61
5053;BME280;2545;50.892;5.740;2023-08-01T08:57:09;56227.78;;;-142.21;85.76
5053;BME280;2545;50.892;5.740;2023-08-01T08:59:35;56214.06;;;-142.21;86.26
5053;BME280;2545;50.892;5.740;2023-08-01T09:02:02;56204.25;;;-142.21;86.13
5053;BME280;2545;50.892;5.740;2023-08-01T09:04:29;56233.66;;;-142.21;85.76
5053;BME280;2545;50.892;5.740;2023-08-01T09:06:58;56237.59;;;-142.21;85.73
5053;BME280;2545;50.892;5.740;2023-08-01T09:09:26;56243.47;;;-142.21;85.56
5053;BME280;2545;50.892;5.740;2023-08-01T09:11:53;56249.34;;;-142.21;85.48
5053;BME280;2545;50.892;5.740;2023-08-01T09:14:21;56184.66;;;-142.21;83.17
5053;BME280;2545;50.892;5.740;2023-08-01T09:16:47;56225.81;;;-142.21;83.20
5053;BME280;2545;50.892;5.740;2023-08-01T09:19:21;56227.78;;;-142.21;79.06
5053;BME280;2545;50.892;5.740;2023-08-01T09:21:47;56192.50;;;-142.21;81.10
5053;BME280;2545;50.892;5.740;2023-08-01T09:24:17;56202.28;;;-142.21;81.54
5053;BME280;2545;50.892;5.740;2023-08-01T09:26:44;56225.81;;;-142.21;80.51
5053;BME280;2545;50.892;5.740;2023-08-01T09:29:10;56231.72;;;-142.21;77.71
5053;BME280;2545;50.892;5.740;2023-08-01T09:31:40;56257.19;;;-142.21;76.84
5053;BME280;2545;50.892;5.740;2023-08-01T09:34:17;56198.38;;;-142.21;77.13
5053;BME280;2545;50.892;5.740;2023-08-01T09:36:43;56188.56;;;-142.21;78.82
5053;BME280;2545;50.892;5.740;2023-08-01T09:39:08;56210.13;;;-142.21;78.84
5053;BME280;2545;50.892;5.740;2023-08-01T09:41:33;56212.09;;;-142.21;76.49
5053;BME280;2545;50.892;5.740;2023-08-01T09:43:59;56208.16;;;-142.21;77.92
5053;BME280;2545;50.892;5.740;2023-08-01T09:46:25;56219.94;;;-142.21;74.63
5053;BME280;2545;50.892;5.740;2023-08-01T09:48:50;56202.28;;;-142.21;73.75
5053;BME280;2545;50.892;5.740;2023-08-01T09:51:17;56214.06;;;-142.21;69.54
5053;BME280;2545;50.892;5.740;2023-08-01T09:53:56;56208.16;;;-142.21;70.23
5053;BME280;2545;50.892;5.740;2023-08-01T09:56:25;56194.44;;;-142.21;70.17
5053;BME280;2545;50.892;5.740;2023-08-01T09:58:52;56176.78;;;-142.21;69.12
5053;BME280;2545;50.892;5.740;2023-08-01T10:01:19;56202.28;;;-142.21;69.46
5053;BME280;2545;50.892;5.740;2023-08-01T10:03:47;56200.34;;;-142.21;67.67
5053;BME280;2545;50.892;5.740;2023-08-01T10:06:22;56186.59;;;-142.21;65.92
5053;BME280;2545;50.892;5.740;2023-08-01T10:08:48;56196.41;;;-142.21;68.65
5053;BME280;2545;50.892;5.740;2023-08-01T10:11:16;56170.91;;;-142.21;68.73
5053;BME280;2545;50.892;5.740;2023-08-01T10:13:43;56155.22;;;-142.21;67.48
5053;BME280;2545;50.892;5.740;2023-08-01T10:16:09;56214.06;;;-142.21;66.85
5053;BME280;2545;50.892;5.740;2023-08-01T10:18:36;56212.09;;;-142.21;65.37
5053;BME280;2545;50.892;5.740;2023-08-01T10:21:03;56206.22;;;-142.21;62.10
5053;BME280;2545;50.892;5.740;2023-08-01T10:23:30;56186.59;;;-142.21;61.41
5053;BME280;2545;50.892;5.740;2023-08-01T10:25:56;56167.00;;;-142.21;62.84
5053;BME280;2545;50.892;5.740;2023-08-01T10:28:31;56127.78;;;-142.21;62.01
5053;BME280;2545;50.892;5.740;2023-08-01T10:31:15;56143.47;;;-142.21;59.22
5053;BME280;2545;50.892;5.740;2023-08-01T10:33:42;56159.16;;;-142.21;57.40
5053;BME280;2545;50.892;5.740;2023-08-01T10:36:15;56198.38;;;-142.21;56.46
5053;BME280;2545;50.892;5.740;2023-08-01T10:38:51;56190.53;;;-142.21;58.92
5053;BME280;2545;50.892;5.740;2023-08-01T10:41:20;56172.88;;;-142.21;60.18
5053;BME280;2545;50.892;5.740;2023-08-01T10:43:46;56163.06;;;-142.21;60.31
5053;BME280;2545;50.892;5.740;2023-08-01T10:46:11;56133.66;;;-142.21;60.73
5053;BME280;2545;50.892;5.740;2023-08-01T10:48:48;56163.06;;;-142.21;62.66
5053;BME280;2545;50.892;5.740;2023-08-01T10:51:13;56170.91;;;-142.21;61.07
5053;BME280;2545;50.892;5.740;2023-08-01T10:53:39;56198.38;;;-142.21;63.17
5053;BME280;2545;50.892;5.740;2023-08-01T10:56:04;56163.06;;;-142.21;58.17
5053;BME280;2545;50.892;5.740;2023-08-01T10:58:30;56112.09;;;-142.21;53.90
5053;BME280;2545;50.892;5.740;2023-08-01T11:00:58;56125.81;;;-142.21;53.11
5053;BME280;2545;50.892;5.740;2023-08-01T11:03:37;56137.59;;;-142.21;56.57
5053;BME280;2545;50.892;5.740;2023-08-01T11:06:02;56149.34;;;-142.21;59.76
5053;BME280;2545;50.892;5.740;2023-08-01T11:08:38;56141.50;;;-142.21;62.17
5053;BME280;2545;50.892;5.740;2023-08-01T11:11:05;56245.44;;;-142.21;60.00
5053;BME280;2545;50.892;5.740;2023-08-01T11:13:32;56192.50;;;-142.21;60.76
5053;BME280;2545;50.892;5.740;2023-08-01T11:16:01;56180.72;;;-142.21;61.25
5053;BME280;2545;50.892;5.740;2023-08-01T11:18:27;56200.34;;;-142.21;65.09
5053;BME280;2545;50.892;5.740;2023-08-01T11:20:53;56180.72;;;-142.21;67.90
5053;BME280;2545;50.892;5.740;2023-08-01T11:23:18;56204.25;;;-142.21;67.37
5053;BME280;2545;50.892;5.740;2023-08-01T11:25:44;56180.72;;;-142.21;66.00
5053;BME280;2545;50.892;5.740;2023-08-01T11:28:13;56200.34;;;-142.21;66.38
5053;BME280;2545;50.892;5.740;2023-08-01T11:30:39;56151.31;;;-142.21;67.67
5053;BME280;2545;50.892;5.740;2023-08-01T11:33:22;56155.22;;;-142.21;68.12
5053;BME280;2545;50.892;5.740;2023-08-01T11:35:52;56210.13;;;-142.21;68.07
5053;BME280;2545;50.892;5.740;2023-08-01T11:38:20;56200.34;;;-142.21;66.04
5053;BME280;2545;50.892;5.740;2023-08-01T11:40:47;56200.34;;;-142.21;66.06
5053;BME280;2545;50.892;5.740;2023-08-01T11:43:14;56165.03;;;-142.21;65.74
5053;BME280;2545;50.892;5.740;2023-08-01T11:45:51;56167.00;;;-142.21;64.52
5053;BME280;2545;50.892;5.740;2023-08-01T11:48:17;56159.16;;;-142.21;62.42
5053;BME280;2545;50.892;5.740;2023-08-01T11:50:43;56214.06;;;-142.21;61.32
5053;BME280;2545;50.892;5.740;2023-08-01T11:53:19;56233.66;;;-142.21;60.18
5053;BME280;2545;50.892;5.740;2023-08-01T11:55:45;56178.75;;;-142.21;60.39
5053;BME280;2545;50.892;5.740;2023-08-01T11:58:11;56151.31;;;-142.21;61.40
5053;BME280;2545;50.892;5.740;2023-08-01T12:00:36;56176.78;;;-142.21;57.67
5053;BME280;2545;50.892;5.740;2023-08-01T12:03:09;56127.78;;;-142.21;56.68
5053;BME280;2545;50.892;5.740;2023-08-01T12:05:41;56143.47;;;-142.21;53.35
5053;BME280;2545;50.892;5.740;2023-08-01T12:08:13;56143.47;;;-142.21;51.54
5053;BME280;2545;50.892;5.740;2023-08-01T12:10:45;56186.59;;;-142.21;53.45
5053;BME280;2545;50.892;5.740;2023-08-01T12:13:24;56137.59;;;-142.21;54.35
5053;BME280;2545;50.892;5.740;2023-08-01T12:15:51;56139.53;;;-142.21;52.50
5053;BME280;2545;50.892;5.740;2023-08-01T12:18:21;56119.94;;;-142.21;51.01
5053;BME280;2545;50.892;5.740;2023-08-01T12:20:46;56129.75;;;-142.21;49.94
5053;BME280;2545;50.892;5.740;2023-08-01T12:23:12;56096.41;;;-142.21;47.13
5053;BME280;2545;50.892;5.740;2023-08-01T12:25:38;56104.25;;;-142.21;49.81
5053;BME280;2545;50.892;5.740;2023-08-01T12:28:03;56131.69;;;-142.21;50.62
5053;BME280;2545;50.892;5.740;2023-08-01T12:30:29;56143.47;;;-142.21;52.75
5053;BME280;2545;50.892;5.740;2023-08-01T12:32:54;56212.09;;;-142.21;53.54
5053;BME280;2545;50.892;5.740;2023-08-01T12:35:19;56133.66;;;-142.21;56.13
5053;BME280;2545;50.892;5.740;2023-08-01T12:37:45;56114.06;;;-142.21;53.20
5053;BME280;2545;50.892;5.740;2023-08-01T12:40:11;56178.75;;;-142.21;51.63
5053;BME280;2545;50.892;5.740;2023-08-01T12:42:36;56151.31;;;-142.21;51.77
5053;BME280;2545;50.892;5.740;2023-08-01T12:45:02;56163.06;;;-142.21;52.74
5053;BME280;2545;50.892;5.740;2023-08-01T12:47:28;56149.34;;;-142.21;54.81